Time;durP1;ratioP1;P1;durP2;ratioP2;P2;SDS_P1;SDS_P2;PMS_P1;PMS_P2;Temp;Humidity;BMP_temperature;BMP_pressure;BME280_temperature;BME280_humidity;BME280_pressure;Samples;Min_cycle;Max_cycle;Signal;HPM_P1;HPM_P2
2022/01/14 00:01:36;;;;;;;40.47;18.70;;;-2.80;99.90;;;;;;5007755;28;20462;-58
2022/01/14 00:04:02;;;;;;;48.00;20.20;;;-2.90;99.90;;;;;;5004526;28;20957;-59
2022/01/14 00:06:27;;;;;;;46.87;20.80;;;-2.90;99.90;;;;;;5006296;28;20336;-57
2022/01/14 00:09:01;;;;;;;41.43;21.03;;;-2.90;99.90;;;;;;5007728;28;20252;-57
2022/01/14 00:11:29;;;;;;;53.77;21.77;;;-2.90;99.90;;;;;;5007515;28;20253;-58
2022/01/14 00:14:08;;;;;;;46.93;21.77;;;-2.90;99.90;;;;;;5006341;28;20461;-58
2022/01/14 00:16:34;;;;;;;41.07;19.47;;;-2.90;99.90;;;;;;5010591;28;20802;-58
2022/01/14 00:19:00;;;;;;;40.03;19.67;;;-2.90;99.90;;;;;;5011231;28;20448;-60
2022/01/14 00:21:30;;;;;;;37.87;19.67;;;-2.90;99.90;;;;;;5008306;28;20200;-58
2022/01/14 00:24:25;;;;;;;48.27;21.57;;;-3.00;99.90;;;;;;5010499;28;20455;-58
2022/01/14 00:32:46;;;;;;;45.20;22.03;;;-3.00;99.90;;;;;;5007869;28;20498;-57
2022/01/14 00:34:58;;;;;;;49.03;23.67;;;-3.00;99.90;;;;;;5006412;28;20431;-57
2022/01/14 00:37:23;;;;;;;43.30;20.20;;;-3.00;99.90;;;;;;5010352;28;20440;-58
2022/01/14 00:39:49;;;;;;;50.20;19.13;;;-3.10;99.90;;;;;;5010617;28;20232;-58
2022/01/14 00:42:15;;;;;;;38.33;18.10;;;-3.10;99.90;;;;;;5011524;28;20336;-58
2022/01/14 00:44:41;;;;;;;39.30;18.93;;;-3.10;99.90;;;;;;5010032;28;20678;-58
2022/01/14 00:47:07;;;;;;;39.10;18.83;;;-3.10;99.90;;;;;;5011354;28;20228;-57
2022/01/14 00:49:32;;;;;;;41.40;18.83;;;-3.10;99.90;;;;;;5009652;28;20472;-57
2022/01/14 00:51:58;;;;;;;37.07;18.77;;;-3.20;99.90;;;;;;5010822;28;20435;-58
2022/01/14 00:54:25;;;;;;;32.20;16.57;;;-3.20;99.90;;;;;;5010625;28;20730;-57
2022/01/14 00:59:46;;;;;;;34.47;18.20;;;-3.20;99.90;;;;;;4950693;28;20518;-57
2022/01/14 01:02:12;;;;;;;33.03;17.10;;;-3.20;99.90;;;;;;5009999;28;20512;-58
2022/01/14 01:04:38;;;;;;;33.57;17.17;;;-3.20;99.90;;;;;;5009558;28;20176;-58
2022/01/14 01:07:07;;;;;;;39.47;17.07;;;-3.20;99.90;;;;;;5009033;28;20687;-58
2022/01/14 01:09:33;;;;;;;35.73;17.13;;;-3.20;99.90;;;;;;5008834;28;20516;-58
2022/01/14 01:12:16;;;;;;;36.80;18.63;;;-3.20;99.90;;;;;;5010416;28;20425;-58
2022/01/14 01:14:50;;;;;;;37.93;18.60;;;-3.20;99.90;;;;;;5009202;28;20487;-58
2022/01/14 01:17:17;;;;;;;38.13;16.43;;;-3.20;99.90;;;;;;5009641;28;20517;-58
2022/01/14 01:19:44;;;;;;;34.13;17.10;;;-3.20;99.90;;;;;;5008892;28;20452;-58
2022/01/14 01:22:10;;;;;;;31.87;15.50;;;-3.20;99.90;;;;;;5010470;28;20427;-58
2022/01/14 01:24:36;;;;;;;29.03;15.00;;;-3.30;99.90;;;;;;5007722;28;20434;-58
2022/01/14 01:27:08;;;;;;;29.00;15.30;;;-3.30;99.90;;;;;;5010049;28;20261;-57
2022/01/14 01:32:02;;;;;;;26.77;14.10;;;-3.40;99.90;;;;;;5010328;28;20433;-58
2022/01/14 01:34:28;;;;;;;26.20;12.80;;;-3.40;99.90;;;;;;5008366;28;20876;-58
2022/01/14 01:36:56;;;;;;;28.27;13.77;;;-3.50;99.90;;;;;;5010286;28;20520;-58
2022/01/14 01:39:28;;;;;;;28.03;13.93;;;-3.50;99.90;;;;;;5007454;28;20484;-58
2022/01/14 01:41:57;;;;;;;27.30;13.80;;;-3.50;99.90;;;;;;5007003;28;20475;-59
2022/01/14 01:44:24;;;;;;;30.03;13.53;;;-3.50;99.90;;;;;;5005328;28;20462;-58
2022/01/14 01:46:51;;;;;;;25.53;13.40;;;-3.50;99.90;;;;;;5007262;28;20504;-58
2022/01/14 01:49:22;;;;;;;38.60;14.40;;;-3.50;99.90;;;;;;5009510;28;20477;-58
2022/01/14 01:51:49;;;;;;;30.47;16.33;;;-3.50;99.90;;;;;;5006393;28;20512;-58
2022/01/14 01:54:16;;;;;;;28.27;14.07;;;-3.50;99.90;;;;;;5008864;28;20416;-58
2022/01/14 01:56:42;;;;;;;28.90;13.80;;;-3.50;99.90;;;;;;5007664;28;20444;-58
2022/01/14 01:59:11;;;;;;;34.40;14.10;;;-3.50;99.90;;;;;;5006940;28;20897;-58
2022/01/14 02:01:41;;;;;;;32.83;15.03;;;-3.50;99.90;;;;;;5004669;28;20526;-58
2022/01/14 02:04:08;;;;;;;27.60;13.73;;;-3.50;99.90;;;;;;5003802;28;20441;-58
2022/01/14 02:06:37;;;;;;;30.73;14.93;;;-3.40;99.90;;;;;;5008458;28;21038;-57
2022/01/14 02:09:03;;;;;;;26.60;13.73;;;-3.40;99.90;;;;;;5006824;28;20496;-58
2022/01/14 02:11:29;;;;;;;28.37;14.03;;;-3.50;99.90;;;;;;5006208;28;20434;-58
2022/01/14 02:13:58;;;;;;;35.20;14.67;;;-3.50;99.90;;;;;;5007476;28;20451;-59
2022/01/14 02:16:58;;;;;;;34.83;15.47;;;-3.50;99.90;;;;;;5007124;28;20178;-58
2022/01/14 02:19:27;;;;;;;27.70;14.23;;;-3.50;99.90;;;;;;5006006;28;20436;-59
2022/01/14 02:22:13;;;;;;;26.97;12.70;;;-3.60;99.90;;;;;;5008991;28;20527;-58
2022/01/14 02:27:14;;;;;;;29.00;14.03;;;-3.60;99.90;;;;;;5008577;28;20479;-58
2022/01/14 02:29:40;;;;;;;26.87;13.37;;;-3.60;99.90;;;;;;5007431;28;20461;-58
2022/01/14 02:32:06;;;;;;;32.50;14.13;;;-3.60;99.90;;;;;;5006460;28;20525;-58
2022/01/14 02:34:32;;;;;;;39.90;13.50;;;-3.60;99.90;;;;;;5006719;28;20176;-57
2022/01/14 02:36:58;;;;;;;26.23;13.83;;;-3.60;99.90;;;;;;5008204;28;20401;-58
2022/01/14 02:39:24;;;;;;;26.47;13.83;;;-3.60;99.90;;;;;;5008779;28;20561;-58
2022/01/14 02:41:51;;;;;;;33.33;15.10;;;-3.60;99.90;;;;;;5009054;28;20264;-58
2022/01/14 02:44:24;;;;;;;28.93;14.23;;;-3.60;99.90;;;;;;5006571;28;20188;-57
2022/01/14 02:46:58;;;;;;;28.50;13.90;;;-3.60;99.90;;;;;;5008457;28;20510;-57
2022/01/14 02:49:28;;;;;;;27.20;13.57;;;-3.60;99.90;;;;;;5006952;28;20476;-57
2022/01/14 02:51:55;;;;;;;31.60;14.93;;;-3.60;99.90;;;;;;5007617;28;20532;-58
2022/01/14 02:54:23;;;;;;;31.63;14.97;;;-3.60;99.90;;;;;;5007993;28;20933;-57
2022/01/14 02:56:52;;;;;;;29.47;13.90;;;-3.60;99.90;;;;;;5008630;28;20505;-58
2022/01/14 02:59:19;;;;;;;29.50;14.00;;;-3.60;99.90;;;;;;5006834;28;20528;-57
2022/01/14 03:01:47;;;;;;;34.43;14.70;;;-3.60;99.90;;;;;;5006611;28;20734;-58
2022/01/14 03:04:18;;;;;;;27.60;14.57;;;-3.70;99.90;;;;;;5008598;28;20433;-58
2022/01/14 03:06:45;;;;;;;27.00;13.70;;;-3.70;99.90;;;;;;5008517;28;20512;-58
2022/01/14 03:09:11;;;;;;;29.07;14.10;;;-3.70;99.90;;;;;;5008554;28;20555;-58
2022/01/14 03:11:46;;;;;;;31.80;14.67;;;-3.70;99.90;;;;;;5007281;28;20535;-58
2022/01/14 03:14:14;;;;;;;33.40;13.53;;;-3.70;99.90;;;;;;5007205;28;21466;-58
2022/01/14 03:16:42;;;;;;;28.70;13.53;;;-3.70;99.90;;;;;;5007522;28;20444;-58
2022/01/14 03:19:18;;;;;;;31.60;14.37;;;-3.60;99.90;;;;;;5007092;28;20514;-58
2022/01/14 03:21:44;;;;;;;26.17;14.10;;;-3.60;99.90;;;;;;5008344;28;20933;-60
2022/01/14 03:24:21;;;;;;;26.97;13.30;;;-3.70;99.90;;;;;;5008748;28;20434;-58
2022/01/14 03:26:48;;;;;;;30.43;13.67;;;-3.70;99.90;;;;;;5006859;28;20200;-58
2022/01/14 03:29:15;;;;;;;23.70;12.67;;;-3.70;99.90;;;;;;5002776;28;20559;-58
2022/01/14 03:31:42;;;;;;;28.00;13.47;;;-3.70;99.90;;;;;;5004354;28;20516;-58
2022/01/14 03:34:08;;;;;;;25.10;14.20;;;-3.70;99.90;;;;;;5002060;28;20438;-59
2022/01/14 03:36:34;;;;;;;28.60;14.60;;;-3.70;99.90;;;;;;5004200;28;20492;-59
2022/01/14 03:38:59;;;;;;;33.33;14.60;;;-3.70;99.90;;;;;;5002941;28;20192;-58
2022/01/14 03:41:25;;;;;;;27.23;13.83;;;-3.70;99.90;;;;;;5003934;28;20502;-57
2022/01/14 03:43:51;;;;;;;25.17;12.30;;;-3.80;99.90;;;;;;5000750;28;20180;-58
2022/01/14 03:46:17;;;;;;;26.37;13.50;;;-3.80;99.90;;;;;;5001405;28;20178;-58
2022/01/14 03:48:42;;;;;;;33.40;13.23;;;-3.80;99.90;;;;;;5003116;28;20471;-58
2022/01/14 03:51:09;;;;;;;27.30;13.10;;;-3.80;99.90;;;;;;5005059;28;20826;-58
2022/01/14 03:53:35;;;;;;;27.30;12.57;;;-3.80;99.90;;;;;;5004598;28;20181;-59
2022/01/14 03:56:01;;;;;;;25.33;13.13;;;-3.80;99.90;;;;;;5005681;28;20465;-58
2022/01/14 03:58:26;;;;;;;25.87;12.43;;;-3.80;99.90;;;;;;5006431;28;20181;-57
2022/01/14 04:00:52;;;;;;;24.47;12.10;;;-3.90;99.90;;;;;;5004393;28;20487;-58
2022/01/14 04:03:17;;;;;;;28.30;14.00;;;-3.90;99.90;;;;;;5006983;28;20553;-56
2022/01/14 04:05:43;;;;;;;22.53;12.17;;;-3.90;99.90;;;;;;5007435;28;20182;-58
2022/01/14 04:08:09;;;;;;;23.37;12.00;;;-3.90;99.90;;;;;;5006960;28;20691;-58
2022/01/14 04:10:35;;;;;;;29.60;14.03;;;-3.90;99.90;;;;;;5007058;28;20613;-57
2022/01/14 04:13:05;;;;;;;26.23;11.70;;;-3.90;99.90;;;;;;5005174;28;20171;-58
2022/01/14 04:15:42;;;;;;;22.33;12.03;;;-4.00;99.90;;;;;;5006383;28;20179;-58
2022/01/14 04:18:09;;;;;;;21.30;12.00;;;-3.90;99.90;;;;;;5005103;28;20531;-58
2022/01/14 04:20:36;;;;;;;22.33;11.60;;;-3.90;99.90;;;;;;5007201;28;20472;-57
2022/01/14 04:23:04;;;;;;;22.40;11.70;;;-3.90;99.90;;;;;;5005700;28;20464;-58
2022/01/14 04:25:31;;;;;;;28.03;12.97;;;-4.00;99.90;;;;;;5007420;28;20425;-59
2022/01/14 04:27:57;;;;;;;20.63;11.03;;;-4.00;99.90;;;;;;5005173;28;20469;-58
2022/01/14 04:30:24;;;;;;;22.90;12.17;;;-4.00;99.90;;;;;;5006414;28;20442;-58
2022/01/14 04:32:50;;;;;;;25.13;11.87;;;-4.00;99.90;;;;;;5004570;28;20612;-58
2022/01/14 04:35:16;;;;;;;22.10;12.13;;;-4.00;99.90;;;;;;5015881;22;20498;-57
2022/01/14 04:37:42;;;;;;;22.60;11.83;;;-4.00;99.90;;;;;;4977067;28;21152;-59
2022/01/14 04:40:09;;;;;;;25.53;12.80;;;-4.00;99.90;;;;;;4974554;28;20645;-57
2022/01/14 04:42:36;;;;;;;19.30;11.30;;;-4.00;99.90;;;;;;4977488;28;20261;-57
2022/01/14 04:45:03;;;;;;;24.13;11.10;;;-4.00;99.90;;;;;;4973278;28;20462;-55
2022/01/14 04:47:43;;;;;;;26.50;11.60;;;-4.00;99.90;;;;;;4972203;28;20471;-55
2022/01/14 04:50:11;;;;;;;20.37;11.20;;;-4.00;99.90;;;;;;4971159;28;20659;-55
2022/01/14 04:52:39;;;;;;;31.37;12.00;;;-4.10;99.90;;;;;;4970102;28;20438;-57
2022/01/14 04:55:06;;;;;;;22.43;11.70;;;-4.10;99.90;;;;;;4967613;28;20490;-56
2022/01/14 04:57:32;;;;;;;20.63;9.97;;;-4.10;99.90;;;;;;4971824;28;20533;-54
2022/01/14 04:59:57;;;;;;;20.77;11.80;;;-4.10;99.90;;;;;;4966442;28;20549;-55
2022/01/14 05:02:23;;;;;;;17.73;10.67;;;-4.10;99.90;;;;;;4971634;28;20251;-56
2022/01/14 05:04:49;;;;;;;22.20;11.10;;;-4.10;99.90;;;;;;4968882;28;20827;-55
2022/01/14 05:07:24;;;;;;;25.40;11.87;;;-4.00;99.90;;;;;;4964349;28;20471;-56
2022/01/14 05:09:59;;;;;;;25.23;11.70;;;-4.10;99.90;;;;;;4970479;28;20206;-56
2022/01/14 05:12:25;;;;;;;22.90;11.60;;;-4.10;99.90;;;;;;4971192;28;20425;-56
2022/01/14 05:14:51;;;;;;;23.50;10.50;;;-4.10;99.90;;;;;;4964097;28;20493;-57
2022/01/14 05:17:16;;;;;;;19.73;11.07;;;-4.10;99.90;;;;;;4966438;28;20431;-56
2022/01/14 05:19:42;;;;;;;25.77;11.60;;;-4.10;99.90;;;;;;4963695;28;20288;-59
2022/01/14 05:22:08;;;;;;;26.30;12.00;;;-4.10;99.90;;;;;;4963057;28;20187;-58
2022/01/14 05:24:33;;;;;;;27.67;11.37;;;-4.10;99.90;;;;;;4969125;28;20267;-55
2022/01/14 05:26:59;;;;;;;21.27;10.07;;;-4.10;99.90;;;;;;4965327;28;20239;-57
2022/01/14 05:29:25;;;;;;;25.83;11.73;;;-4.10;99.90;;;;;;4971308;28;20235;-57
2022/01/14 05:32:01;;;;;;;25.97;10.83;;;-4.10;99.90;;;;;;4969424;28;20190;-54
2022/01/14 05:34:26;;;;;;;22.43;11.10;;;-4.20;99.90;;;;;;4967840;28;20729;-57
2022/01/14 05:36:52;;;;;;;20.27;12.20;;;-4.20;99.90;;;;;;4953835;28;20426;-57
2022/01/14 05:39:20;;;;;;;27.07;12.07;;;-4.20;99.90;;;;;;4973000;28;20189;-59
2022/01/14 05:41:46;;;;;;;17.47;10.17;;;-4.20;99.90;;;;;;4967054;28;20282;-58
2022/01/14 05:44:12;;;;;;;20.83;9.70;;;-4.20;99.90;;;;;;4962717;28;20462;-58
2022/01/14 05:46:38;;;;;;;26.30;9.90;;;-4.20;99.90;;;;;;4973205;28;20430;-59
2022/01/14 05:49:04;;;;;;;20.17;9.43;;;-4.20;99.90;;;;;;4974887;28;20208;-57
2022/01/14 05:51:30;;;;;;;23.20;11.10;;;-4.20;99.90;;;;;;4964261;28;20809;-57
2022/01/14 05:53:55;;;;;;;17.23;9.63;;;-4.20;99.90;;;;;;4969958;28;20177;-60
2022/01/14 05:56:21;;;;;;;24.67;11.47;;;-4.20;99.90;;;;;;4971644;28;20187;-57
2022/01/14 05:58:47;;;;;;;21.73;10.40;;;-4.20;99.90;;;;;;4971974;28;20430;-58
2022/01/14 06:01:13;;;;;;;28.10;11.67;;;-4.20;99.90;;;;;;4980527;28;20202;-56
2022/01/14 06:03:38;;;;;;;20.77;11.30;;;-4.20;99.90;;;;;;4969629;28;20191;-57
2022/01/14 06:06:04;;;;;;;22.50;11.80;;;-4.20;99.90;;;;;;4977007;28;20219;-58
2022/01/14 06:08:29;;;;;;;24.27;12.27;;;-4.20;99.90;;;;;;5003848;28;20210;-60
2022/01/14 06:10:55;;;;;;;35.67;15.30;;;-4.20;99.90;;;;;;4996381;28;20183;-59
2022/01/14 06:13:21;;;;;;;31.87;13.53;;;-4.30;99.90;;;;;;4990147;28;20722;-57
2022/01/14 06:15:47;;;;;;;31.63;14.00;;;-4.30;99.90;;;;;;4978324;28;20219;-58
2022/01/14 06:18:12;;;;;;;26.60;13.17;;;-4.30;99.90;;;;;;4979107;28;20187;-57
2022/01/14 06:20:38;;;;;;;26.03;11.53;;;-4.30;99.90;;;;;;4982834;28;20809;-57
2022/01/14 06:23:03;;;;;;;22.70;11.73;;;-4.30;99.90;;;;;;4974165;28;20191;-58
2022/01/14 06:25:29;;;;;;;21.07;11.00;;;-4.30;99.90;;;;;;4997866;28;20270;-58
2022/01/14 06:27:55;;;;;;;21.80;10.07;;;-4.30;99.90;;;;;;5002105;28;20206;-60
2022/01/14 06:30:21;;;;;;;31.00;12.20;;;-4.30;99.90;;;;;;4998190;28;20179;-58
2022/01/14 06:32:50;;;;;;;23.60;11.60;;;-4.30;99.90;;;;;;4984812;28;20278;-57
2022/01/14 06:35:16;;;;;;;21.70;12.27;;;-4.30;99.90;;;;;;4971389;28;20214;-58
2022/01/14 06:37:42;;;;;;;28.80;12.53;;;-4.30;99.90;;;;;;4971032;28;20442;-57
2022/01/14 06:40:09;;;;;;;28.73;12.13;;;-4.30;99.90;;;;;;4974723;28;20437;-58
2022/01/14 06:42:35;;;;;;;21.77;11.80;;;-4.30;99.90;;;;;;4973527;28;20675;-57
2022/01/14 06:45:02;;;;;;;29.80;12.20;;;-4.30;99.90;;;;;;4970824;28;20814;-57
2022/01/14 06:47:27;;;;;;;22.23;10.90;;;-4.30;99.90;;;;;;4976332;28;20222;-63
2022/01/14 06:49:53;;;;;;;21.13;12.00;;;-4.30;99.90;;;;;;4974830;28;20436;-57
2022/01/14 06:52:19;;;;;;;22.70;11.30;;;-4.30;99.90;;;;;;4977654;28;20681;-56
2022/01/14 06:54:44;;;;;;;22.37;11.90;;;-4.30;99.90;;;;;;4977493;28;20217;-57
2022/01/14 06:57:10;;;;;;;24.87;11.37;;;-4.30;99.90;;;;;;4969487;28;20523;-56
2022/01/14 06:59:36;;;;;;;26.97;10.53;;;-4.30;99.90;;;;;;4971474;28;20728;-57
2022/01/14 07:02:02;;;;;;;27.63;10.67;;;-4.30;99.90;;;;;;4973500;28;20188;-57
2022/01/14 07:04:28;;;;;;;23.63;10.53;;;-4.40;99.90;;;;;;4977359;28;20470;-57
2022/01/14 07:06:53;;;;;;;24.37;10.90;;;-4.40;99.90;;;;;;4973117;28;20433;-58
2022/01/14 07:09:19;;;;;;;22.93;10.13;;;-4.40;99.90;;;;;;4990034;28;20217;-59
2022/01/14 07:11:52;;;;;;;22.13;10.43;;;-4.40;99.90;;;;;;4997749;28;20184;-58
2022/01/14 07:14:18;;;;;;;23.53;11.03;;;-4.40;99.90;;;;;;4979833;28;20204;-56
2022/01/14 07:16:43;;;;;;;23.10;11.33;;;-4.40;99.90;;;;;;4971500;28;20848;-58
2022/01/14 07:19:09;;;;;;;21.63;9.73;;;-4.40;99.90;;;;;;4977410;28;20500;-55
2022/01/14 07:21:35;;;;;;;22.90;10.07;;;-4.40;99.90;;;;;;4970099;28;21196;-57
2022/01/14 07:24:04;;;;;;;20.67;9.90;;;-4.40;99.90;;;;;;4979090;28;20640;-56
2022/01/14 07:26:30;;;;;;;20.33;9.67;;;-4.40;99.90;;;;;;4981656;28;20173;-57
2022/01/14 07:28:55;;;;;;;21.43;11.90;;;-4.40;99.90;;;;;;4980307;28;20916;-57
2022/01/14 07:31:21;;;;;;;24.33;10.57;;;-4.30;99.90;;;;;;4978924;28;20799;-57
2022/01/14 07:33:47;;;;;;;19.97;11.67;;;-4.30;99.90;;;;;;4982776;28;20174;-57
2022/01/14 07:36:12;;;;;;;23.13;10.97;;;-4.30;99.90;;;;;;4980685;28;20257;-57
2022/01/14 07:38:39;;;;;;;17.73;9.80;;;-4.30;99.90;;;;;;4981853;28;20266;-57
2022/01/14 07:41:05;;;;;;;17.87;10.80;;;-4.20;99.90;;;;;;4978253;28;20183;-57
2022/01/14 07:43:30;;;;;;;17.93;9.63;;;-4.20;99.90;;;;;;4981576;28;20429;-56
2022/01/14 07:45:56;;;;;;;14.80;9.33;;;-4.20;99.90;;;;;;4981566;28;20202;-57
2022/01/14 07:48:22;;;;;;;21.67;11.00;;;-4.20;99.90;;;;;;4979821;28;20682;-56
2022/01/14 07:50:48;;;;;;;20.43;9.60;;;-4.20;99.90;;;;;;4983481;28;20241;-55
2022/01/14 07:53:14;;;;;;;18.63;9.67;;;-4.10;99.90;;;;;;4975549;28;20432;-56
2022/01/14 07:55:40;;;;;;;15.50;10.43;;;-4.10;99.90;;;;;;4980239;28;20989;-57
2022/01/14 07:58:06;;;;;;;20.77;10.53;;;-4.10;99.90;;;;;;4982376;28;20189;-57
2022/01/14 08:00:33;;;;;;;22.20;11.10;;;-4.10;99.90;;;;;;4977883;28;20686;-59
2022/01/14 08:02:59;;;;;;;17.30;9.83;;;-4.00;99.90;;;;;;4980624;28;20540;-57
2022/01/14 08:05:24;;;;;;;16.40;9.33;;;-4.00;99.90;;;;;;4982421;28;20448;-57
2022/01/14 08:07:52;;;;;;;18.20;9.57;;;-4.00;99.90;;;;;;4980333;28;20628;-58
2022/01/14 08:10:18;;;;;;;21.50;9.93;;;-4.00;99.90;;;;;;4980745;28;20416;-57
2022/01/14 08:12:46;;;;;;;21.80;9.83;;;-3.90;99.90;;;;;;4978162;28;20433;-57
2022/01/14 08:15:12;;;;;;;20.67;10.30;;;-3.90;99.90;;;;;;4977655;28;20196;-58
2022/01/14 08:17:38;;;;;;;19.83;10.60;;;-3.80;99.90;;;;;;4975533;28;20527;-57
2022/01/14 08:20:06;;;;;;;19.37;10.90;;;-3.80;99.90;;;;;;4982072;28;20445;-56
2022/01/14 08:22:32;;;;;;;19.87;11.63;;;-3.80;99.90;;;;;;4984285;28;20413;-58
2022/01/14 08:24:59;;;;;;;25.10;11.50;;;-3.70;99.90;;;;;;4979384;28;20508;-58
2022/01/14 08:27:26;;;;;;;22.03;10.80;;;-3.70;99.90;;;;;;4974160;28;20435;-58
2022/01/14 08:29:52;;;;;;;22.70;11.57;;;-3.60;99.90;;;;;;4976244;28;20519;-56
2022/01/14 08:32:19;;;;;;;22.57;12.87;;;-3.60;99.90;;;;;;4980443;28;20524;-57
2022/01/14 08:34:44;;;;;;;24.10;13.10;;;-3.50;99.90;;;;;;4978405;28;20463;-56
2022/01/14 08:37:10;;;;;;;27.47;13.10;;;-3.50;99.90;;;;;;4978527;28;20602;-57
2022/01/14 08:39:36;;;;;;;22.83;13.10;;;-3.40;99.90;;;;;;4979837;28;20187;-57
2022/01/14 08:42:04;;;;;;;27.50;14.07;;;-3.30;99.90;;;;;;4980365;28;20177;-59
2022/01/14 08:44:30;;;;;;;26.67;13.90;;;-3.30;99.90;;;;;;4975126;28;20206;-59
2022/01/14 08:46:56;;;;;;;38.27;18.77;;;-3.20;99.90;;;;;;4974930;28;20430;-58
2022/01/14 08:49:22;;;;;;;38.00;18.17;;;-3.20;99.90;;;;;;4975468;28;20481;-57
2022/01/14 08:51:49;;;;;;;29.60;16.50;;;-3.10;99.90;;;;;;4976617;28;20188;-58
2022/01/14 08:54:16;;;;;;;30.20;14.17;;;-3.10;99.90;;;;;;4977135;28;20843;-57
2022/01/14 08:56:42;;;;;;;30.47;15.70;;;-3.00;99.90;;;;;;4978823;28;20434;-58
2022/01/14 08:59:07;;;;;;;23.93;13.83;;;-3.00;99.90;;;;;;4980918;28;20982;-57
2022/01/14 09:01:34;;;;;;;26.53;13.10;;;-3.00;99.90;;;;;;4976414;28;20445;-56
2022/01/14 09:04:01;;;;;;;28.00;14.37;;;-2.90;99.90;;;;;;4979174;28;20241;-56
2022/01/14 09:06:27;;;;;;;28.13;14.27;;;-2.80;99.90;;;;;;4980482;28;20426;-58
2022/01/14 09:08:53;;;;;;;38.27;14.80;;;-2.70;99.90;;;;;;4973367;28;20468;-57
2022/01/14 09:11:19;;;;;;;30.40;14.17;;;-2.60;99.90;;;;;;4977724;28;20530;-56
2022/01/14 09:13:45;;;;;;;39.30;15.87;;;-2.50;99.90;;;;;;4982227;28;20640;-55
2022/01/14 09:16:12;;;;;;;35.03;15.53;;;-2.40;99.90;;;;;;4977006;28;20455;-58
2022/01/14 09:18:37;;;;;;;32.10;15.30;;;-2.40;99.90;;;;;;4977343;28;20186;-58
2022/01/14 09:21:03;;;;;;;30.87;14.47;;;-2.30;99.90;;;;;;4977380;28;20481;-54
2022/01/14 09:23:29;;;;;;;36.57;14.67;;;-2.20;99.90;;;;;;4973705;28;20197;-55
2022/01/14 09:25:56;;;;;;;29.27;15.50;;;-2.10;99.90;;;;;;4967658;28;20458;-54
2022/01/14 09:28:22;;;;;;;31.77;15.67;;;-2.00;99.90;;;;;;4971798;28;20496;-55
2022/01/14 09:30:48;;;;;;;30.47;15.10;;;-2.00;99.90;;;;;;4971718;28;20802;-55
2022/01/14 09:33:17;;;;;;;32.70;16.33;;;-1.90;99.90;;;;;;4968124;28;20444;-56
2022/01/14 09:35:43;;;;;;;34.00;14.97;;;-1.80;99.90;;;;;;4963735;28;20302;-55
2022/01/14 09:38:09;;;;;;;35.13;15.43;;;-1.70;99.90;;;;;;4969968;28;20562;-53
2022/01/14 09:40:36;;;;;;;32.00;16.47;;;-1.60;99.90;;;;;;4963732;28;20455;-54
2022/01/14 09:43:02;;;;;;;30.93;16.53;;;-1.50;99.90;;;;;;4965662;28;20198;-54
2022/01/14 09:45:29;;;;;;;35.60;15.83;;;-1.40;99.90;;;;;;4963212;28;20586;-54
2022/01/14 09:47:56;;;;;;;39.77;15.83;;;-1.30;99.90;;;;;;4969823;28;20479;-56
2022/01/14 09:50:23;;;;;;;38.17;15.60;;;-1.20;99.90;;;;;;4963494;28;20816;-54
2022/01/14 09:52:51;;;;;;;35.63;15.70;;;-1.10;99.90;;;;;;4967411;28;20447;-55
2022/01/14 09:55:21;;;;;;;50.77;18.80;;;-1.00;99.90;;;;;;4964653;28;20514;-56
2022/01/14 09:57:47;;;;;;;48.40;20.00;;;-0.90;99.90;;;;;;4970196;28;20949;-55
2022/01/14 10:00:14;;;;;;;50.10;22.33;;;-0.80;99.90;;;;;;4984630;28;20497;-56
2022/01/14 10:02:42;;;;;;;43.23;20.90;;;-0.70;99.90;;;;;;4988008;28;20436;-55
2022/01/14 10:05:10;;;;;;;42.50;18.87;;;-0.50;99.90;;;;;;4979367;28;20450;-56
2022/01/14 10:07:35;;;;;;;40.73;18.77;;;-0.40;99.90;;;;;;4984843;28;20495;-56
2022/01/14 10:10:23;;;;;;;41.67;20.83;;;-0.20;99.90;;;;;;4974337;28;20423;-55
2022/01/14 10:12:48;;;;;;;47.80;20.40;;;-0.10;99.90;;;;;;4964609;28;20198;-55
2022/01/14 10:15:14;;;;;;;41.60;17.70;;;0.10;99.90;;;;;;4967419;28;20444;-55
2022/01/14 10:17:42;;;;;;;39.47;19.30;;;0.20;98.70;;;;;;4969306;28;20164;-61
2022/01/14 10:20:11;;;;;;;47.07;18.67;;;0.40;98.30;;;;;;4987464;28;20195;-58
2022/01/14 10:22:44;;;;;;;51.37;18.50;;;0.50;97.30;;;;;;4983891;28;20428;-58
2022/01/14 10:25:16;;;;;;;45.10;18.70;;;0.60;97.00;;;;;;4985603;28;20482;-58
2022/01/14 10:27:43;;;;;;;50.23;22.10;;;0.60;95.30;;;;;;4989140;28;20510;-58
2022/01/14 10:30:28;;;;;;;49.30;21.93;;;0.60;94.40;;;;;;4992467;28;20435;-57
2022/01/14 10:32:54;;;;;;;48.70;19.93;;;0.70;95.30;;;;;;4986868;28;20444;-58
2022/01/14 10:35:21;;;;;;;47.60;20.90;;;0.80;94.60;;;;;;4989086;28;20514;-57
2022/01/14 10:37:48;;;;;;;40.73;18.20;;;0.90;94.20;;;;;;4991374;28;20192;-56
2022/01/14 10:40:23;;;;;;;48.83;20.03;;;1.00;93.80;;;;;;4985375;28;20508;-58
2022/01/14 10:42:51;;;;;;;41.87;18.07;;;1.00;93.60;;;;;;4985186;28;20431;-56
2022/01/14 10:45:27;;;;;;;39.53;19.60;;;1.20;92.60;;;;;;4977835;28;20450;-57
2022/01/14 10:48:03;;;;;;;38.60;18.83;;;1.30;92.40;;;;;;4982212;28;20570;-57
2022/01/14 10:50:37;;;;;;;45.17;20.27;;;1.40;90.40;;;;;;4969175;28;20741;-58
2022/01/14 10:53:18;;;;;;;52.60;22.00;;;1.50;90.00;;;;;;4961810;28;20489;-58
2022/01/14 10:55:52;;;;;;;39.30;19.97;;;1.70;89.20;;;;;;4967464;28;20456;-58
2022/01/14 10:58:24;;;;;;;37.33;19.80;;;1.80;87.50;;;;;;4960510;28;20574;-55
2022/01/14 11:00:59;;;;;;;47.47;20.17;;;1.80;84.90;;;;;;4960864;28;20408;-57
2022/01/14 11:03:35;;;;;;;36.20;17.77;;;1.90;83.00;;;;;;4967460;28;20434;-58
2022/01/14 11:06:18;;;;;;;44.97;19.30;;;2.00;82.10;;;;;;4969657;28;20586;-59
2022/01/14 11:08:45;;;;;;;46.30;20.10;;;2.10;78.80;;;;;;4968683;28;20470;-59
2022/01/14 11:11:11;;;;;;;41.33;19.17;;;2.10;77.20;;;;;;4964305;28;20437;-59
2022/01/14 11:13:37;;;;;;;31.23;16.90;;;2.20;76.60;;;;;;4986973;23;20681;-60
2022/01/14 11:16:03;;;;;;;37.70;16.83;;;2.30;76.30;;;;;;5005242;28;21028;-60
2022/01/14 11:18:29;;;;;;;32.27;16.43;;;2.40;74.60;;;;;;5000542;28;20646;-57
2022/01/14 11:23:39;;;;;;;20.23;11.63;;;2.50;73.20;;;;;;5008963;28;20502;-60
2022/01/14 11:26:08;;;;;;;28.63;13.30;;;2.70;70.30;;;;;;5009246;28;20417;-58
2022/01/14 11:28:36;;;;;;;22.87;13.40;;;2.80;70.40;;;;;;5007455;28;20207;-59
2022/01/14 11:31:30;;;;;;;22.40;12.40;;;2.90;68.20;;;;;;5006525;28;20446;-60
2022/01/14 11:34:00;;;;;;;26.13;12.27;;;3.00;66.50;;;;;;5003616;28;20538;-60
2022/01/14 11:36:48;;;;;;;20.43;13.37;;;3.20;67.00;;;;;;5002969;28;20415;-61
2022/01/14 11:39:24;;;;;;;22.93;13.57;;;3.40;66.50;;;;;;5006129;28;20838;-60
2022/01/14 11:41:59;;;;;;;29.40;14.20;;;3.60;66.70;;;;;;5001691;28;20458;-61
2022/01/14 11:44:58;;;;;;;;;;;;;;;;;;;;;
2022/01/14 11:47:24;;;;;;;24.00;13.00;;;3.90;65.60;;;;;;5001313;28;20449;-60
2022/01/14 11:49:50;;;;;;;22.90;12.73;;;4.20;64.50;;;;;;5001673;28;20438;-59
2022/01/14 11:52:33;;;;;;;24.50;12.63;;;4.40;62.70;;;;;;5000774;28;20526;-60
2022/01/14 11:54:59;;;;;;;24.33;12.23;;;4.50;61.60;;;;;;5004206;28;20542;-60
2022/01/14 11:57:44;;;;;;;24.70;12.63;;;4.50;61.30;;;;;;4999081;28;20582;-60
2022/01/14 12:00:29;;;;;;;24.63;11.90;;;4.60;61.50;;;;;;5001800;28;20643;-60
2022/01/14 12:03:18;;;;;;;19.47;12.50;;;4.60;61.30;;;;;;4998904;28;20459;-61
2022/01/14 12:05:49;;;;;;;28.90;13.30;;;4.60;61.10;;;;;;4997169;28;20435;-59
2022/01/14 12:08:17;;;;;;;24.67;13.77;;;4.50;61.70;;;;;;5001864;28;20462;-60
2022/01/14 12:10:46;;;;;;;29.43;14.20;;;4.50;62.20;;;;;;5004769;28;20855;-59
2022/01/14 12:16:09;;;;;;;31.50;14.80;;;4.40;62.30;;;;;;5007096;28;20427;-60
2022/01/14 12:18:56;;;;;;;26.73;15.13;;;4.20;62.30;;;;;;5008227;28;20450;-60
2022/01/14 12:21:37;;;;;;;34.20;15.77;;;4.00;63.00;;;;;;5010031;28;20438;-60
2022/01/14 12:24:27;;;;;;;24.33;13.47;;;3.90;63.80;;;;;;5010375;28;20435;-60
2022/01/14 12:26:55;;;;;;;24.40;12.63;;;3.80;64.70;;;;;;5009670;28;20521;-60
2022/01/14 12:29:32;;;;;;;29.07;14.70;;;3.70;65.50;;;;;;5009383;28;20909;-59
2022/01/14 12:32:21;;;;;;;31.00;14.40;;;3.60;66.60;;;;;;5006439;28;20497;-60
2022/01/14 12:34:56;;;;;;;29.33;13.30;;;3.60;67.40;;;;;;5006515;28;20431;-60
2022/01/14 12:37:41;;;;;;;29.80;15.77;;;3.60;68.20;;;;;;5004007;28;20486;-60
2022/01/14 12:40:16;;;;;;;27.93;14.80;;;3.60;69.30;;;;;;5010365;28;20822;-60
2022/01/14 12:42:48;;;;;;;30.43;15.60;;;3.60;69.40;;;;;;5010565;28;20482;-60
2022/01/14 12:45:34;;;;;;;31.87;17.00;;;3.60;70.00;;;;;;5010867;28;20439;-60
2022/01/14 12:48:17;;;;;;;34.40;16.77;;;3.60;69.70;;;;;;5007957;28;20474;-60
2022/01/14 12:50:45;;;;;;;29.70;15.90;;;3.70;69.80;;;;;;5005995;28;20442;-60
2022/01/14 12:53:18;;;;;;;33.13;16.27;;;3.70;70.40;;;;;;5004941;28;20435;-60
2022/01/14 12:55:44;;;;;;;27.93;16.03;;;3.70;70.90;;;;;;5007827;28;20502;-59
2022/01/14 12:58:11;;;;;;;33.20;17.17;;;3.70;71.60;;;;;;5009860;28;20443;-60